sensor_id;sensor_type;location;lat;lon;timestamp;P1;durP1;ratioP1;P2;durP2;ratioP2
72645;SDS011;60687;53.876;10.674;2023-04-07T00:02:57;10.05;;;5.32;;
72645;SDS011;60687;53.876;10.674;2023-04-07T00:13:01;9.67;;;5.10;;
72645;SDS011;60687;53.876;10.674;2023-04-07T00:23:06;10.30;;;4.20;;
72645;SDS011;60687;53.876;10.674;2023-04-07T00:33:08;8.90;;;4.70;;
72645;SDS011;60687;53.876;10.674;2023-04-07T00:43:12;8.27;;;4.30;;
72645;SDS011;60687;53.876;10.674;2023-04-07T00:53:14;9.33;;;5.20;;
72645;SDS011;60687;53.876;10.674;2023-04-07T01:03:19;10.37;;;5.20;;
72645;SDS011;60687;53.876;10.674;2023-04-07T01:13:29;8.85;;;5.07;;
72645;SDS011;60687;53.876;10.674;2023-04-07T01:24:03;9.80;;;5.20;;
72645;SDS011;60687;53.876;10.674;2023-04-07T01:34:22;10.93;;;5.27;;
72645;SDS011;60687;53.876;10.674;2023-04-07T01:44:28;10.15;;;5.88;;
72645;SDS011;60687;53.876;10.674;2023-04-07T01:54:36;10.50;;;4.70;;
72645;SDS011;60687;53.876;10.674;2023-04-07T02:04:39;9.70;;;4.70;;
72645;SDS011;60687;53.876;10.674;2023-04-07T02:14:50;8.20;;;4.90;;
72645;SDS011;60687;53.876;10.674;2023-04-07T02:24:54;8.32;;;4.53;;
72645;SDS011;60687;53.876;10.674;2023-04-07T02:35:01;8.80;;;4.20;;
72645;SDS011;60687;53.876;10.674;2023-04-07T02:45:04;9.33;;;4.60;;
72645;SDS011;60687;53.876;10.674;2023-04-07T02:55:09;9.13;;;4.53;;
72645;SDS011;60687;53.876;10.674;2023-04-07T03:05:12;8.47;;;4.23;;
72645;SDS011;60687;53.876;10.674;2023-04-07T03:15:16;8.93;;;4.77;;
72645;SDS011;60687;53.876;10.674;2023-04-07T03:25:21;9.02;;;4.47;;
72645;SDS011;60687;53.876;10.674;2023-04-07T03:35:26;7.90;;;4.43;;
72645;SDS011;60687;53.876;10.674;2023-04-07T03:45:29;10.07;;;5.50;;
72645;SDS011;60687;53.876;10.674;2023-04-07T03:55:34;9.63;;;5.63;;
72645;SDS011;60687;53.876;10.674;2023-04-07T04:05:45;9.93;;;5.72;;
72645;SDS011;60687;53.876;10.674;2023-04-07T04:15:54;10.07;;;6.37;;
72645;SDS011;60687;53.876;10.674;2023-04-07T04:25:56;10.13;;;6.40;;
72645;SDS011;60687;53.876;10.674;2023-04-07T04:36:02;9.73;;;5.50;;
72645;SDS011;60687;53.876;10.674;2023-04-07T04:46:05;12.00;;;6.67;;
72645;SDS011;60687;53.876;10.674;2023-04-07T04:56:14;11.07;;;6.57;;
72645;SDS011;60687;53.876;10.674;2023-04-07T05:06:20;10.43;;;6.20;;
72645;SDS011;60687;53.876;10.674;2023-04-07T05:16:26;11.90;;;6.50;;
72645;SDS011;60687;53.876;10.674;2023-04-07T05:26:30;10.97;;;6.70;;
72645;SDS011;60687;53.876;10.674;2023-04-07T05:36:35;11.20;;;6.32;;
72645;SDS011;60687;53.876;10.674;2023-04-07T05:46:37;12.77;;;7.95;;
72645;SDS011;60687;53.876;10.674;2023-04-07T05:56:41;12.20;;;7.00;;
72645;SDS011;60687;53.876;10.674;2023-04-07T06:06:44;16.67;;;9.10;;
72645;SDS011;60687;53.876;10.674;2023-04-07T06:16:50;13.90;;;7.45;;
72645;SDS011;60687;53.876;10.674;2023-04-07T06:26:52;10.63;;;5.90;;
72645;SDS011;60687;53.876;10.674;2023-04-07T06:37:00;11.73;;;6.50;;
72645;SDS011;60687;53.876;10.674;2023-04-07T06:47:02;11.40;;;6.30;;
72645;SDS011;60687;53.876;10.674;2023-04-07T06:57:06;12.77;;;6.43;;
72645;SDS011;60687;53.876;10.674;2023-04-07T07:07:11;11.77;;;5.67;;
72645;SDS011;60687;53.876;10.674;2023-04-07T07:17:15;13.27;;;6.60;;
72645;SDS011;60687;53.876;10.674;2023-04-07T07:27:17;12.13;;;6.63;;
72645;SDS011;60687;53.876;10.674;2023-04-07T07:37:21;11.97;;;5.90;;
72645;SDS011;60687;53.876;10.674;2023-04-07T07:47:23;12.63;;;6.80;;
72645;SDS011;60687;53.876;10.674;2023-04-07T07:57:33;12.05;;;5.55;;
72645;SDS011;60687;53.876;10.674;2023-04-07T08:07:39;10.90;;;5.20;;
72645;SDS011;60687;53.876;10.674;2023-04-07T08:17:44;9.57;;;4.50;;
72645;SDS011;60687;53.876;10.674;2023-04-07T08:27:46;11.30;;;5.88;;
72645;SDS011;60687;53.876;10.674;2023-04-07T08:37:52;10.90;;;5.97;;
72645;SDS011;60687;53.876;10.674;2023-04-07T08:47:55;10.03;;;5.40;;
72645;SDS011;60687;53.876;10.674;2023-04-07T08:58:09;9.80;;;4.70;;
72645;SDS011;60687;53.876;10.674;2023-04-07T09:08:12;8.50;;;4.40;;
72645;SDS011;60687;53.876;10.674;2023-04-07T09:18:17;9.20;;;3.60;;
72645;SDS011;60687;53.876;10.674;2023-04-07T09:28:21;8.00;;;3.20;;
72645;SDS011;60687;53.876;10.674;2023-04-07T09:38:25;8.07;;;3.15;;
72645;SDS011;60687;53.876;10.674;2023-04-07T09:48:35;7.27;;;2.70;;
72645;SDS011;60687;53.876;10.674;2023-04-07T09:58:39;6.70;;;2.57;;
72645;SDS011;60687;53.876;10.674;2023-04-07T10:08:42;7.38;;;3.13;;
72645;SDS011;60687;53.876;10.674;2023-04-07T10:18:46;6.33;;;2.30;;
72645;SDS011;60687;53.876;10.674;2023-04-07T10:28:52;6.70;;;2.60;;
72645;SDS011;60687;53.876;10.674;2023-04-07T10:49:24;7.60;;;3.17;;
72645;SDS011;60687;53.876;10.674;2023-04-07T10:59:31;6.20;;;2.17;;
72645;SDS011;60687;53.876;10.674;2023-04-07T11:09:34;6.97;;;2.43;;
72645;SDS011;60687;53.876;10.674;2023-04-07T11:19:50;7.35;;;2.55;;
72645;SDS011;60687;53.876;10.674;2023-04-07T11:29:52;7.53;;;2.23;;
72645;SDS011;60687;53.876;10.674;2023-04-07T11:39:57;6.57;;;2.50;;
72645;SDS011;60687;53.876;10.674;2023-04-07T11:50:03;7.63;;;2.22;;
72645;SDS011;60687;53.876;10.674;2023-04-07T12:00:09;6.67;;;2.33;;
72645;SDS011;60687;53.876;10.674;2023-04-07T12:10:17;7.63;;;3.23;;
72645;SDS011;60687;53.876;10.674;2023-04-07T12:20:24;6.40;;;2.50;;
72645;SDS011;60687;53.876;10.674;2023-04-07T12:30:27;8.30;;;3.70;;
72645;SDS011;60687;53.876;10.674;2023-04-07T12:40:30;10.07;;;3.50;;
72645;SDS011;60687;53.876;10.674;2023-04-07T12:50:34;7.53;;;3.77;;
72645;SDS011;60687;53.876;10.674;2023-04-07T13:00:38;7.45;;;3.30;;
72645;SDS011;60687;53.876;10.674;2023-04-07T13:10:42;7.33;;;2.80;;
72645;SDS011;60687;53.876;10.674;2023-04-07T13:20:45;8.40;;;3.37;;
72645;SDS011;60687;53.876;10.674;2023-04-07T13:30:48;8.90;;;3.67;;
72645;SDS011;60687;53.876;10.674;2023-04-07T13:40:57;6.70;;;2.50;;
72645;SDS011;60687;53.876;10.674;2023-04-07T13:51:03;6.93;;;2.70;;
72645;SDS011;60687;53.876;10.674;2023-04-07T14:01:07;8.98;;;3.38;;
72645;SDS011;60687;53.876;10.674;2023-04-07T14:11:15;7.00;;;3.08;;
72645;SDS011;60687;53.876;10.674;2023-04-07T14:21:19;8.80;;;3.53;;
72645;SDS011;60687;53.876;10.674;2023-04-07T14:31:22;6.77;;;2.73;;
72645;SDS011;60687;53.876;10.674;2023-04-07T14:41:25;9.68;;;3.50;;
72645;SDS011;60687;53.876;10.674;2023-04-07T14:51:29;6.90;;;3.20;;
72645;SDS011;60687;53.876;10.674;2023-04-07T15:01:33;7.43;;;3.00;;
72645;SDS011;60687;53.876;10.674;2023-04-07T15:11:35;12.18;;;5.70;;
72645;SDS011;60687;53.876;10.674;2023-04-07T15:21:39;10.20;;;4.43;;
72645;SDS011;60687;53.876;10.674;2023-04-07T15:31:41;8.80;;;3.70;;
72645;SDS011;60687;53.876;10.674;2023-04-07T15:41:45;7.22;;;3.22;;
72645;SDS011;60687;53.876;10.674;2023-04-07T15:51:47;9.02;;;3.42;;
72645;SDS011;60687;53.876;10.674;2023-04-07T16:01:51;9.17;;;3.90;;
72645;SDS011;60687;53.876;10.674;2023-04-07T16:11:54;7.60;;;3.70;;
72645;SDS011;60687;53.876;10.674;2023-04-07T16:22:01;9.73;;;5.05;;
72645;SDS011;60687;53.876;10.674;2023-04-07T16:32:03;10.50;;;5.00;;
72645;SDS011;60687;53.876;10.674;2023-04-07T16:42:07;9.10;;;4.23;;
72645;SDS011;60687;53.876;10.674;2023-04-07T16:52:10;10.82;;;4.82;;
72645;SDS011;60687;53.876;10.674;2023-04-07T17:02:14;13.50;;;6.57;;
72645;SDS011;60687;53.876;10.674;2023-04-07T17:12:16;13.10;;;6.50;;
72645;SDS011;60687;53.876;10.674;2023-04-07T17:22:23;15.43;;;8.15;;
72645;SDS011;60687;53.876;10.674;2023-04-07T17:32:25;19.05;;;9.82;;
72645;SDS011;60687;53.876;10.674;2023-04-07T17:42:29;29.90;;;16.93;;
72645;SDS011;60687;53.876;10.674;2023-04-07T17:52:32;19.70;;;9.17;;
72645;SDS011;60687;53.876;10.674;2023-04-07T18:02:36;15.32;;;7.88;;
72645;SDS011;60687;53.876;10.674;2023-04-07T18:12:39;9.50;;;4.27;;
72645;SDS011;60687;53.876;10.674;2023-04-07T18:22:43;10.00;;;4.93;;
72645;SDS011;60687;53.876;10.674;2023-04-07T18:32:45;7.38;;;3.58;;
72645;SDS011;60687;53.876;10.674;2023-04-07T18:42:50;9.60;;;3.50;;
72645;SDS011;60687;53.876;10.674;2023-04-07T18:52:52;8.77;;;4.60;;
72645;SDS011;60687;53.876;10.674;2023-04-07T19:02:56;9.88;;;4.90;;
72645;SDS011;60687;53.876;10.674;2023-04-07T19:12:58;8.43;;;3.58;;
72645;SDS011;60687;53.876;10.674;2023-04-07T19:23:02;9.53;;;4.80;;
72645;SDS011;60687;53.876;10.674;2023-04-07T19:33:04;10.27;;;5.13;;
72645;SDS011;60687;53.876;10.674;2023-04-07T19:43:08;9.85;;;5.00;;
72645;SDS011;60687;53.876;10.674;2023-04-07T19:53:16;12.80;;;5.40;;
72645;SDS011;60687;53.876;10.674;2023-04-07T20:03:19;11.60;;;5.37;;
72645;SDS011;60687;53.876;10.674;2023-04-07T20:13:22;12.73;;;5.70;;
72645;SDS011;60687;53.876;10.674;2023-04-07T20:23:25;14.93;;;7.03;;
72645;SDS011;60687;53.876;10.674;2023-04-07T20:33:31;13.60;;;6.87;;
72645;SDS011;60687;53.876;10.674;2023-04-07T20:43:35;12.48;;;6.05;;
72645;SDS011;60687;53.876;10.674;2023-04-07T20:53:37;12.05;;;6.00;;
72645;SDS011;60687;53.876;10.674;2023-04-07T21:03:43;14.60;;;6.57;;
72645;SDS011;60687;53.876;10.674;2023-04-07T21:13:45;15.60;;;7.27;;
72645;SDS011;60687;53.876;10.674;2023-04-07T21:23:49;15.65;;;6.95;;
72645;SDS011;60687;53.876;10.674;2023-04-07T21:33:51;14.00;;;7.37;;
72645;SDS011;60687;53.876;10.674;2023-04-07T21:43:56;17.60;;;7.40;;
72645;SDS011;60687;53.876;10.674;2023-04-07T21:53:59;15.13;;;6.60;;
72645;SDS011;60687;53.876;10.674;2023-04-07T22:04:02;16.77;;;7.33;;
72645;SDS011;60687;53.876;10.674;2023-04-07T22:14:08;21.53;;;8.30;;
72645;SDS011;60687;53.876;10.674;2023-04-07T22:24:12;18.60;;;8.35;;
72645;SDS011;60687;53.876;10.674;2023-04-07T22:34:14;14.27;;;6.68;;
72645;SDS011;60687;53.876;10.674;2023-04-07T22:44:18;15.07;;;6.83;;
72645;SDS011;60687;53.876;10.674;2023-04-07T22:54:20;15.27;;;7.50;;
72645;SDS011;60687;53.876;10.674;2023-04-07T23:04:24;16.20;;;6.90;;
72645;SDS011;60687;53.876;10.674;2023-04-07T23:14:26;13.70;;;6.23;;
72645;SDS011;60687;53.876;10.674;2023-04-07T23:24:30;13.87;;;6.80;;
72645;SDS011;60687;53.876;10.674;2023-04-07T23:34:32;13.57;;;6.85;;
72645;SDS011;60687;53.876;10.674;2023-04-07T23:44:37;14.20;;;7.17;;
72645;SDS011;60687;53.876;10.674;2023-04-07T23:54:39;15.30;;;7.60;;
